createdAt,value
2022-11-20T00:01:26.737Z,8.82
2022-11-20T00:03:55.494Z,8.02
2022-11-20T00:06:24.041Z,7.93
2022-11-20T00:08:52.584Z,8.52
2022-11-20T00:11:22.983Z,8.50
2022-11-20T00:13:53.112Z,8.70
2022-11-20T00:16:23.138Z,8.20
2022-11-20T00:18:51.298Z,8.30
2022-11-20T00:23:51.331Z,7.20
2022-11-20T00:26:20.019Z,6.80
2022-11-20T00:28:59.062Z,7.38
2022-11-20T00:31:27.168Z,6.60
2022-11-20T00:36:24.473Z,7.55
2022-11-20T00:38:59.192Z,5.93
2022-11-20T00:41:28.504Z,6.30
2022-11-20T00:43:56.819Z,6.75
2022-11-20T00:46:27.165Z,5.72
2022-11-20T00:48:54.758Z,6.03
2022-11-20T00:51:24.934Z,6.38
2022-11-20T00:53:52.714Z,5.32
2022-11-20T00:56:20.880Z,5.63
2022-11-20T01:03:48.014Z,5.47
2022-11-20T01:06:16.621Z,5.65
2022-11-20T01:08:45.073Z,4.97
2022-11-20T01:11:15.734Z,5.13
2022-11-20T01:13:43.963Z,5.22
2022-11-20T01:18:40.634Z,4.43
2022-11-20T01:21:23.526Z,4.03
2022-11-20T01:23:51.862Z,4.80
2022-11-20T01:26:21.991Z,4.90
2022-11-20T01:28:49.886Z,4.22
2022-11-20T01:31:22.032Z,4.15
2022-11-20T01:33:51.806Z,3.70
2022-11-20T01:36:21.434Z,4.00
2022-11-20T01:38:51.807Z,4.10
2022-11-20T01:41:38.114Z,4.40
2022-11-20T01:44:06.075Z,3.92
2022-11-20T01:46:37.586Z,4.03
2022-11-20T01:49:19.888Z,4.13
2022-11-20T01:51:56.678Z,4.18
2022-11-20T01:54:31.855Z,4.00
2022-11-20T01:57:01.664Z,4.03
2022-11-20T01:59:30.450Z,4.18
2022-11-20T02:01:58.419Z,3.72
2022-11-20T02:04:26.665Z,4.38
2022-11-20T02:07:01.074Z,3.72
2022-11-20T02:09:29.096Z,4.10
2022-11-20T02:11:57.968Z,3.42
2022-11-20T02:14:26.247Z,3.20
2022-11-20T02:16:55.697Z,3.42
2022-11-20T02:19:30.757Z,3.38
2022-11-20T02:22:30.165Z,3.28
2022-11-20T02:24:59.984Z,2.85
2022-11-20T02:27:28.312Z,3.15
2022-11-20T02:30:08.616Z,2.80
2022-11-20T02:32:37.649Z,3.13
2022-11-20T02:35:11.444Z,3.70
2022-11-20T02:37:41.693Z,3.22
2022-11-20T02:40:09.726Z,3.55
2022-11-20T02:42:38.350Z,2.88
2022-11-20T02:45:07.267Z,3.22
2022-11-20T02:47:34.726Z,3.20
2022-11-20T02:50:03.341Z,2.92
2022-11-20T02:52:31.168Z,3.65
2022-11-20T02:54:58.584Z,3.00
2022-11-20T02:57:25.958Z,2.67
2022-11-20T02:59:53.418Z,2.78
2022-11-20T03:02:21.461Z,2.75
2022-11-20T03:04:48.933Z,2.53
2022-11-20T03:07:16.494Z,2.78
2022-11-20T03:09:43.960Z,2.90
2022-11-20T03:12:11.377Z,2.78
2022-11-20T03:14:38.900Z,3.08
2022-11-20T03:17:06.367Z,3.10
2022-11-20T03:19:35.098Z,2.25
2022-11-20T03:22:02.657Z,1.90
2022-11-20T03:24:30.240Z,2.10
2022-11-20T03:26:57.634Z,2.15
2022-11-20T03:29:25.187Z,1.85
2022-11-20T03:31:52.588Z,2.10
2022-11-20T03:34:20.065Z,1.98
2022-11-20T03:36:47.503Z,2.30
2022-11-20T03:39:14.940Z,2.15
2022-11-20T03:41:43.599Z,2.08
2022-11-20T03:44:12.660Z,2.10
2022-11-20T03:46:40.251Z,3.25
2022-11-20T03:49:07.747Z,2.70
2022-11-20T03:51:36.814Z,2.45
2022-11-20T03:54:09.100Z,2.53
2022-11-20T03:56:38.808Z,2.67
2022-11-20T03:59:06.617Z,2.83
2022-11-20T04:01:36.136Z,2.67
2022-11-20T04:04:05.722Z,3.00
2022-11-20T04:06:38.440Z,2.75
2022-11-20T04:09:07.257Z,3.00
2022-11-20T04:11:37.444Z,3.55
2022-11-20T04:14:06.961Z,4.00
2022-11-20T04:16:37.653Z,2.80
2022-11-20T04:19:10.324Z,3.22
2022-11-20T04:21:37.892Z,3.47
2022-11-20T04:24:05.755Z,3.28
2022-11-20T04:26:33.217Z,3.85
2022-11-20T04:29:02.798Z,3.88
2022-11-20T04:31:32.566Z,3.95
2022-11-20T04:34:05.965Z,3.63
2022-11-20T04:36:33.721Z,3.70
2022-11-20T04:39:04.350Z,3.78
2022-11-20T04:41:36.009Z,3.65
2022-11-20T04:44:06.154Z,3.90
2022-11-20T04:46:39.834Z,3.97
2022-11-20T04:49:08.268Z,5.93
2022-11-20T04:51:35.914Z,4.13
2022-11-20T04:54:03.862Z,4.38
2022-11-20T04:56:31.301Z,4.20
2022-11-20T04:59:02.591Z,4.10
2022-11-20T05:01:30.687Z,4.35
2022-11-20T05:03:58.099Z,4.28
2022-11-20T05:06:25.548Z,4.15
2022-11-20T05:08:53.009Z,3.92
2022-11-20T05:11:21.846Z,4.03
2022-11-20T05:13:50.869Z,4.07
2022-11-20T05:16:21.265Z,3.75
2022-11-20T05:18:49.850Z,4.22
2022-11-20T05:21:17.992Z,4.18
2022-11-20T05:23:46.380Z,3.80
2022-11-20T05:26:19.485Z,4.07
2022-11-20T05:28:47.871Z,4.78
2022-11-20T05:31:23.369Z,4.50
2022-11-20T05:33:53.969Z,4.97
2022-11-20T05:36:21.761Z,4.55
2022-11-20T05:38:51.161Z,5.05
2022-11-20T05:41:20.775Z,5.00
2022-11-20T05:43:50.042Z,5.25
2022-11-20T05:46:26.472Z,5.68
2022-11-20T05:48:57.352Z,5.80
2022-11-20T05:51:25.754Z,6.63
2022-11-20T05:53:53.229Z,6.43
2022-11-20T05:56:22.283Z,6.80
2022-11-20T05:58:50.119Z,7.03
2022-11-20T06:01:21.819Z,6.97
2022-11-20T06:03:51.384Z,7.95
2022-11-20T06:06:20.370Z,7.50
2022-11-20T06:08:48.818Z,7.65
2022-11-20T06:11:17.461Z,8.43
2022-11-20T06:13:45.576Z,8.45
2022-11-20T06:18:41.534Z,7.72
2022-11-20T06:21:17.874Z,8.50
2022-11-20T06:23:46.350Z,8.95
2022-11-20T06:26:16.324Z,7.95
2022-11-20T06:28:44.152Z,8.02
2022-11-20T06:31:14.274Z,8.10
2022-11-20T06:33:42.947Z,7.68
2022-11-20T06:36:12.493Z,7.63
2022-11-20T06:38:40.616Z,7.88
2022-11-20T06:43:38.494Z,7.38
2022-11-20T06:46:06.077Z,8.05
2022-11-20T06:48:33.553Z,8.70
2022-11-20T06:51:03.685Z,8.40
2022-11-20T06:53:31.086Z,8.65
2022-11-20T06:55:58.790Z,8.77
2022-11-20T06:58:31.068Z,7.90
2022-11-20T07:01:13.430Z,8.18
2022-11-20T07:03:41.069Z,8.48
2022-11-20T07:06:09.160Z,8.20
2022-11-20T07:08:37.021Z,7.82
2022-11-20T07:11:07.511Z,7.45
2022-11-20T07:13:35.524Z,7.03
2022-11-20T07:16:08.205Z,6.10
2022-11-20T07:18:36.476Z,6.20
2022-11-20T07:23:32.554Z,4.78
2022-11-20T07:26:05.334Z,5.18
2022-11-20T07:28:33.404Z,5.50
2022-11-20T07:31:01.037Z,4.90
2022-11-20T07:33:28.472Z,5.38
2022-11-20T07:35:55.866Z,5.03
2022-11-20T07:38:23.266Z,5.13
2022-11-20T07:40:55.484Z,4.75
2022-11-20T07:43:22.889Z,5.10
2022-11-20T07:45:50.505Z,5.20
2022-11-20T07:48:17.933Z,4.93
2022-11-20T07:50:45.336Z,3.58
2022-11-20T07:53:13.667Z,2.28
2022-11-20T07:55:42.473Z,2.03
2022-11-20T07:58:10.024Z,2.83
2022-11-20T08:00:37.732Z,2.65
2022-11-20T08:03:06.624Z,3.38
2022-11-20T08:05:34.583Z,3.83
2022-11-20T08:08:02.075Z,3.35
2022-11-20T08:10:29.597Z,3.35
2022-11-20T08:13:15.625Z,11.85
2022-11-20T08:15:48.539Z,10.95
2022-11-20T08:18:30.415Z,7.00
2022-11-20T08:21:02.393Z,4.28
2022-11-20T08:23:29.947Z,4.10
2022-11-20T08:25:57.360Z,3.92
2022-11-20T08:28:24.795Z,3.65
2022-11-20T08:30:52.234Z,3.95
2022-11-20T08:33:19.949Z,3.40
2022-11-20T08:35:47.356Z,3.25
2022-11-20T08:38:14.855Z,2.92
2022-11-20T08:41:02.290Z,3.38
2022-11-20T08:43:29.891Z,2.75
2022-11-20T08:46:00.389Z,3.50
2022-11-20T08:48:27.800Z,3.13
2022-11-20T08:50:59.290Z,3.47
2022-11-20T08:53:27.581Z,3.42
2022-11-20T08:55:55.277Z,3.70
2022-11-20T08:58:22.673Z,3.95
2022-11-20T09:00:50.184Z,4.37
2022-11-20T09:03:17.589Z,5.10
2022-11-20T09:05:45.216Z,5.20
2022-11-20T09:08:12.594Z,5.90
2022-11-20T09:10:42.899Z,5.78
2022-11-20T09:13:10.375Z,6.68
2022-11-20T09:15:37.830Z,6.50
2022-11-20T09:18:05.944Z,6.70
2022-11-20T09:20:33.433Z,7.00
2022-11-20T09:23:00.931Z,6.57
2022-11-20T09:25:28.336Z,6.75
2022-11-20T09:27:57.182Z,7.78
2022-11-20T09:30:25.017Z,6.07
2022-11-20T09:32:54.987Z,7.03
2022-11-20T09:35:22.553Z,6.30
2022-11-20T09:37:50.142Z,6.50
2022-11-20T09:40:23.682Z,7.30
2022-11-20T09:42:58.726Z,7.35
2022-11-20T09:45:49.146Z,7.25
2022-11-20T09:48:35.960Z,9.13
2022-11-20T09:51:36.859Z,8.13
2022-11-20T09:54:21.762Z,9.82
2022-11-20T09:56:54.376Z,8.65
2022-11-20T09:59:27.596Z,8.50
2022-11-20T10:01:56.542Z,8.65
2022-11-20T10:04:25.219Z,9.60
2022-11-20T10:07:30.712Z,9.48
2022-11-20T10:09:55.242Z,9.63
2022-11-20T10:12:50.229Z,8.05
2022-11-20T10:15:32.818Z,8.73
2022-11-20T10:18:05.499Z,8.27
2022-11-20T10:20:52.760Z,8.38
2022-11-20T10:23:26.306Z,8.68
2022-11-20T10:26:04.146Z,7.32
2022-11-20T10:28:31.968Z,8.70
2022-11-20T10:31:05.304Z,8.40
2022-11-20T10:34:10.469Z,7.80
2022-11-20T10:36:38.012Z,8.07
2022-11-20T10:39:15.578Z,8.90
2022-11-20T10:41:43.293Z,6.28
2022-11-20T10:44:36.543Z,8.05
2022-11-20T10:47:06.143Z,7.43
2022-11-20T10:49:35.475Z,7.63
2022-11-20T10:52:11.849Z,7.60
2022-11-20T10:54:47.538Z,8.60
2022-11-20T10:57:57.532Z,7.60
2022-11-20T11:00:25.364Z,7.72
2022-11-20T11:02:57.355Z,6.57
2022-11-20T11:05:40.180Z,5.55
2022-11-20T11:08:15.074Z,6.80
2022-11-20T11:11:02.429Z,7.30
2022-11-20T11:13:31.797Z,6.50
2022-11-20T11:15:59.716Z,5.80
2022-11-20T11:18:30.828Z,5.20
2022-11-20T11:21:00.989Z,5.32
2022-11-20T11:23:34.230Z,5.28
2022-11-20T11:26:04.742Z,5.72
2022-11-20T11:28:32.778Z,4.47
2022-11-20T11:33:34.574Z,5.13
2022-11-20T11:36:05.271Z,4.57
2022-11-20T11:38:46.149Z,4.32
2022-11-20T11:41:19.768Z,4.55
2022-11-20T11:44:17.342Z,5.53
2022-11-20T11:46:55.386Z,5.28
2022-11-20T11:49:23.502Z,5.40
2022-11-20T11:54:29.089Z,5.07
2022-11-20T11:57:02.058Z,5.05
2022-11-20T11:59:54.306Z,4.45
2022-11-20T12:02:40.234Z,3.58
2022-11-20T12:05:21.006Z,4.68
2022-11-20T12:08:25.707Z,4.68
2022-11-20T12:10:54.066Z,4.00
2022-11-20T12:13:45.430Z,4.20
2022-11-20T12:16:16.364Z,4.95
2022-11-20T12:18:44.593Z,4.50
2022-11-20T12:23:53.671Z,4.63
2022-11-20T12:26:47.653Z,4.88
2022-11-20T12:29:32.374Z,4.28
2022-11-20T12:32:21.415Z,4.13
2022-11-20T12:35:03.346Z,4.90
2022-11-20T12:37:41.304Z,3.95
2022-11-20T12:40:15.969Z,4.15
2022-11-20T12:43:17.571Z,5.05
2022-11-20T12:46:04.754Z,4.60
2022-11-20T12:48:41.156Z,5.07
2022-11-20T12:51:36.460Z,4.32
2022-11-20T12:54:52.559Z,5.45
2022-11-20T12:57:39.469Z,4.95
2022-11-20T13:00:22.097Z,4.18
2022-11-20T13:02:55.685Z,4.25
2022-11-20T13:05:32.313Z,4.20
2022-11-20T13:08:42.058Z,3.90
2022-11-20T13:11:59.432Z,5.00
2022-11-20T13:14:43.812Z,3.78
2022-11-20T13:17:15.195Z,4.10
2022-11-20T13:19:44.450Z,3.63
2022-11-20T13:22:12.315Z,4.25
2022-11-20T13:24:40.353Z,4.13
2022-11-20T13:27:13.409Z,4.05
2022-11-20T13:29:48.543Z,4.22
2022-11-20T13:32:16.522Z,3.75
2022-11-20T13:34:58.643Z,4.43
2022-11-20T13:37:30.895Z,4.18
2022-11-20T13:40:14.965Z,4.65
2022-11-20T13:43:08.145Z,4.05
2022-11-20T13:45:35.790Z,5.05
2022-11-20T13:48:17.430Z,4.90
2022-11-20T13:50:58.270Z,3.35
2022-11-20T13:53:53.249Z,4.32
2022-11-20T13:56:39.656Z,4.32
2022-11-20T13:59:15.123Z,3.97
2022-11-20T14:01:50.238Z,3.60
2022-11-20T14:04:30.835Z,3.38
2022-11-20T14:06:58.937Z,4.22
2022-11-20T14:09:32.128Z,3.80
2022-11-20T14:12:00.265Z,3.20
2022-11-20T14:14:29.675Z,3.58
2022-11-20T14:17:19.189Z,4.00
2022-11-20T14:19:48.402Z,4.55
2022-11-20T14:22:23.886Z,3.65
2022-11-20T14:25:13.091Z,3.92
2022-11-20T14:27:43.133Z,3.53
2022-11-20T14:30:25.465Z,4.85
2022-11-20T14:32:56.535Z,4.40
2022-11-20T14:35:29.997Z,4.07
2022-11-20T14:37:58.317Z,4.40
2022-11-20T14:40:31.931Z,4.20
2022-11-20T14:43:02.340Z,4.53
2022-11-20T14:45:30.207Z,4.70
2022-11-20T14:48:01.783Z,4.88
2022-11-20T14:50:30.525Z,4.35
2022-11-20T14:53:00.436Z,4.30
2022-11-20T14:55:39.248Z,5.53
2022-11-20T14:58:28.751Z,4.00
2022-11-20T15:01:20.374Z,4.90
2022-11-20T15:03:58.465Z,5.82
2022-11-20T15:06:29.889Z,5.78
2022-11-20T15:08:57.689Z,4.35
2022-11-20T15:11:31.246Z,4.97
2022-11-20T15:14:03.317Z,4.30
2022-11-20T15:16:31.732Z,5.13
2022-11-20T15:18:59.662Z,4.88
2022-11-20T15:21:27.522Z,5.45
2022-11-20T15:23:55.770Z,4.50
2022-11-20T15:28:54.707Z,4.28
2022-11-20T15:31:24.495Z,4.60
2022-11-20T15:33:52.259Z,4.90
2022-11-20T15:36:19.943Z,4.82
2022-11-20T15:38:47.551Z,4.25
2022-11-20T15:41:15.063Z,4.97
2022-11-20T15:43:42.491Z,4.88
2022-11-20T15:46:27.102Z,4.80
2022-11-20T15:49:00.196Z,4.65
2022-11-20T15:51:34.607Z,5.47
2022-11-20T15:54:10.385Z,5.60
2022-11-20T15:56:38.500Z,5.57
2022-11-20T15:59:06.066Z,5.45
2022-11-20T16:01:33.675Z,5.53
2022-11-20T16:04:02.155Z,5.00
2022-11-20T16:06:29.585Z,5.22
2022-11-20T16:08:57.188Z,5.03
2022-11-20T16:11:24.659Z,5.15
2022-11-20T16:14:10.824Z,4.97
2022-11-20T16:16:40.155Z,5.40
2022-11-20T16:19:10.649Z,4.47
2022-11-20T16:21:38.552Z,4.93
2022-11-20T16:24:09.264Z,4.30
2022-11-20T16:26:37.221Z,4.43
2022-11-20T16:29:06.179Z,6.25
2022-11-20T16:31:33.985Z,5.22
2022-11-20T16:34:08.582Z,7.22
2022-11-20T16:36:44.416Z,7.05
2022-11-20T16:39:13.271Z,5.10
2022-11-20T16:41:40.761Z,5.55
2022-11-20T16:44:11.103Z,5.30
2022-11-20T16:46:40.848Z,5.43
2022-11-20T16:49:13.826Z,5.35
2022-11-20T16:51:42.729Z,5.00
2022-11-20T16:54:11.732Z,4.57
2022-11-20T16:56:40.595Z,4.35
2022-11-20T16:59:08.111Z,6.82
2022-11-20T17:01:38.689Z,4.28
2022-11-20T17:04:07.205Z,7.00
2022-11-20T17:06:36.907Z,5.15
2022-11-20T17:09:05.145Z,4.63
2022-11-20T17:11:33.568Z,4.18
2022-11-20T17:14:03.510Z,5.43
2022-11-20T17:16:31.283Z,5.47
2022-11-20T17:19:03.306Z,5.15
2022-11-20T17:21:33.337Z,5.00
2022-11-20T17:24:06.135Z,5.55
2022-11-20T17:26:34.910Z,5.38
2022-11-20T17:29:10.038Z,7.32
2022-11-20T17:31:38.629Z,6.30
2022-11-20T17:34:08.808Z,5.40
2022-11-20T17:36:39.596Z,5.07
2022-11-20T17:39:15.238Z,4.18
2022-11-20T17:41:43.026Z,5.10
2022-11-20T17:44:12.118Z,4.75
2022-11-20T17:46:40.644Z,4.53
2022-11-20T17:49:08.335Z,4.30
2022-11-20T17:51:36.258Z,4.47
2022-11-20T17:54:07.560Z,3.83
2022-11-20T17:56:56.899Z,3.83
2022-11-20T17:59:24.559Z,4.22
2022-11-20T18:01:52.005Z,3.67
2022-11-20T18:04:19.984Z,3.63
2022-11-20T18:06:53.103Z,3.30
2022-11-20T18:09:26.347Z,3.50
2022-11-20T18:14:34.539Z,3.22
2022-11-20T18:17:06.324Z,3.00
2022-11-20T18:19:41.250Z,3.47
2022-11-20T18:22:17.855Z,2.85
2022-11-20T18:24:48.025Z,3.22
2022-11-20T18:27:18.299Z,3.30
2022-11-20T18:29:48.795Z,3.13
2022-11-20T18:32:20.202Z,3.45
2022-11-20T18:34:47.855Z,3.08
2022-11-20T18:37:16.474Z,3.10
2022-11-20T18:39:48.241Z,3.20
2022-11-20T18:42:45.831Z,3.65
2022-11-20T18:45:13.398Z,3.42
2022-11-20T18:47:41.187Z,4.32
2022-11-20T18:50:09.665Z,33.20
2022-11-20T18:52:44.314Z,53.75
2022-11-20T18:55:12.846Z,80.05
2022-11-20T18:57:40.617Z,14.43
2022-11-20T19:00:10.038Z,15.18
2022-11-20T19:02:42.052Z,11.15
2022-11-20T19:05:14.560Z,4.93
2022-11-20T19:07:42.592Z,3.72
2022-11-20T19:12:37.755Z,3.53
2022-11-20T19:15:08.018Z,3.20
2022-11-20T19:17:35.586Z,3.30
2022-11-20T19:20:03.340Z,3.47
2022-11-20T19:22:31.150Z,3.45
2022-11-20T19:24:58.622Z,3.85
2022-11-20T19:27:26.054Z,3.38
2022-11-20T19:29:54.863Z,3.75
2022-11-20T19:32:22.446Z,3.22
2022-11-20T19:34:50.208Z,3.25
2022-11-20T19:37:17.610Z,2.53
2022-11-20T19:39:45.162Z,3.88
2022-11-20T19:42:12.707Z,3.47
2022-11-20T19:44:40.445Z,3.88
2022-11-20T19:47:14.004Z,3.58
2022-11-20T19:49:42.163Z,3.25
2022-11-20T19:52:09.615Z,4.25
2022-11-20T19:54:37.480Z,4.00
2022-11-20T19:57:04.916Z,3.50
2022-11-20T19:59:32.407Z,3.38
2022-11-20T20:02:02.030Z,3.50
2022-11-20T20:04:29.598Z,3.28
2022-11-20T20:06:57.015Z,3.63
2022-11-20T20:09:26.885Z,3.47
2022-11-20T20:11:54.423Z,3.35
2022-11-20T20:14:22.204Z,4.60
2022-11-20T20:16:49.674Z,3.35
2022-11-20T20:19:17.181Z,3.83
2022-11-20T20:21:44.762Z,3.60
2022-11-20T20:24:12.429Z,4.07
2022-11-20T20:26:40.464Z,4.07
2022-11-20T20:29:08.217Z,3.92
2022-11-20T20:31:35.964Z,4.32
2022-11-20T20:34:05.305Z,5.45
2022-11-20T20:36:34.165Z,3.67
2022-11-20T20:39:02.743Z,3.70
2022-11-20T20:41:31.065Z,3.78
2022-11-20T20:46:44.657Z,3.17
2022-11-20T20:49:12.395Z,3.88
2022-11-20T20:51:40.145Z,3.35
2022-11-20T20:54:07.855Z,3.67
2022-11-20T20:56:35.379Z,3.72
2022-11-20T20:59:03.989Z,3.20
2022-11-20T21:01:31.491Z,3.55
2022-11-20T21:03:59.966Z,2.90
2022-11-20T21:06:27.600Z,3.30
2022-11-20T21:08:57.296Z,3.20
2022-11-20T21:11:24.869Z,3.13
2022-11-20T21:13:52.651Z,3.30
2022-11-20T21:16:22.356Z,3.40
2022-11-20T21:18:50.500Z,3.30
2022-11-20T21:21:36.959Z,3.22
2022-11-20T21:24:05.275Z,3.30
2022-11-20T21:26:32.812Z,3.17
2022-11-20T21:29:00.269Z,3.28
2022-11-20T21:31:29.868Z,3.10
2022-11-20T21:33:58.215Z,3.00
2022-11-20T21:36:31.580Z,3.03
2022-11-20T21:38:59.637Z,2.88
2022-11-20T21:49:12.346Z,2.60
2022-11-20T21:51:40.205Z,3.00
2022-11-20T21:54:09.689Z,2.75
2022-11-20T21:56:37.154Z,2.80
2022-11-20T21:59:05.126Z,2.80
2022-11-20T22:01:32.638Z,2.83
2022-11-20T22:04:02.301Z,3.47
2022-11-20T22:06:34.351Z,2.50
2022-11-20T22:09:02.957Z,3.22
2022-11-20T22:11:30.562Z,3.47
2022-11-20T22:14:17.016Z,3.10
2022-11-20T22:16:44.513Z,3.00
2022-11-20T22:19:15.102Z,3.10
2022-11-20T22:21:42.677Z,3.13
2022-11-20T22:24:15.116Z,3.70
2022-11-20T22:26:46.237Z,3.53
2022-11-20T22:29:19.003Z,3.17
2022-11-20T22:31:47.613Z,2.95
2022-11-20T22:34:15.124Z,2.95
2022-11-20T22:36:43.054Z,2.53
2022-11-20T22:39:10.740Z,2.50
2022-11-20T22:41:38.258Z,3.05
2022-11-20T22:44:08.883Z,2.97
2022-11-20T22:46:37.727Z,3.10
2022-11-20T22:49:08.712Z,2.85
2022-11-20T22:51:39.699Z,2.78
2022-11-20T22:54:07.845Z,2.78
2022-11-20T22:59:02.843Z,2.50
2022-11-20T23:01:32.727Z,2.67
2022-11-20T23:04:05.848Z,2.63
2022-11-20T23:06:36.480Z,2.70
2022-11-20T23:09:05.512Z,2.47
2022-11-20T23:11:33.652Z,2.72
2022-11-20T23:14:04.107Z,2.83
2022-11-20T23:16:32.634Z,2.63
2022-11-20T23:19:06.697Z,2.72
2022-11-20T23:21:35.701Z,2.92
2022-11-20T23:24:04.073Z,2.65
2022-11-20T23:26:34.315Z,2.53
2022-11-20T23:29:02.029Z,2.60
2022-11-20T23:31:31.524Z,2.67
2022-11-20T23:33:59.625Z,2.90
2022-11-20T23:38:54.809Z,3.00
2022-11-20T23:41:22.271Z,2.72
2022-11-20T23:43:49.678Z,2.72
2022-11-20T23:46:17.274Z,2.83
2022-11-20T23:48:45.627Z,2.47
2022-11-20T23:51:13.775Z,2.63
2022-11-20T23:53:41.579Z,2.55
2022-11-20T23:56:09.036Z,2.40
2022-11-20T23:58:38.801Z,2.63
